KIIB

Independence Municipal Airport

Independence, Iowa, USA
METAR KIIB 171515Z AUTO 33005KT 10SM CLR M01/M03 A3028 RMK AO2 T10061034
Observed Flight Rules
Dec-17 @ 15:15 UTC (17 minutes ago) Visual Flight Rules
Wind Visibility Clouds
330° at 5 knots 10 miles
  • Clear skies
Temperatures Readings
Current -1°C / 30°F
Dewpoint -3°C / 27°F
Humidity 86%
Altimeter 30.28" Hg
Pressure 1025 hPa
Elevation 298
METAR KIIB 171515Z AUTO 33005KT 10SM CLR M01/M03 A3028 RMK AO2 T10061034
Observed Flight Rules
Dec-17 @ 15:15 UTC
(17 minutes ago)
VFR
Wind Visibility
330° at 5 knots 10 miles
Clouds
  • Clear skies
Temperature Dewpoint
-1°C / 30°F -3°C / 27°F
Humidity Altimeter Pressure
86% 30.28" Hg 1025 hPa